Latest Coastal Weather Observations for Hobart

IDT60701

Issued at 11:25 am EDT Sunday 26 October 2014 (issued every 10 minutes, with the page automatically refreshed every 10 minutes)

About coastal observations | Map of coastal stations | Coastal observations for TAS | Marine services | Other Formats
Station Details ID: 094029 Name: HOBART (ELLERSLIE ROAD) Lat: -42.89 Lon: 147.33 Height: 50.5 m
Data from the previous 72 hours. | See also: Recent months at Hobart
Date/Time
EDT
Temp

°C
Wind Pressure Rain
since 9am
mm
Weather Cloud Vis
km
Sea
Height
m
Swell
Dir
 
Speed
knots
Gust
knots
hPa Trend Height
m
Period
s
Dir
26/11:00am 11.2 SE 5 7 1014.9 - 0.6 - - - - - - -
26/10:30am 10.8 SSE 5 7 1015.0 - 0.6 - - - - - - -
26/10:00am 10.5 SSW 3 4 1015.2 - 0.2 - - - - - - -
26/09:30am 10.1 SE 4 5 1015.2 - 0.0 - - - - - - -
26/09:00am 10.3 S 3 4 1015.3 - 4.2 Recent precip. - - - - - -
26/08:30am 10.3 SW 4 6 1015.4 - 4.2 - - - - - - -
26/08:00am 9.9 S 3 5 1015.4 - 4.0 - - - - - - -
26/07:30am 9.7 SSW 4 6 1015.5 - 3.6 - - - - - - -
26/07:00am 9.6 S 3 5 1015.4 - 3.4 - - - - - - -
26/06:30am 9.4 S 3 4 1015.5 - 3.2 - - - - - - -
26/06:00am 9.4 SSE 5 6 1015.4 - 2.8 Rain - - - - - -
26/05:30am 9.5 SSW 3 5 1015.4 - 2.2 - - - - - - -
26/05:00am 9.4 S 4 5 1015.4 - 1.4 - - - - - - -
26/04:30am 9.4 SSE 5 7 1015.5 - 1.2 - - - - - - -
26/04:00am 9.3 S 4 6 1015.7 - 1.0 - - - - - - -
26/03:30am 9.3 SSE 4 6 1015.8 - 0.8 - - - - - - -
26/03:00am 9.4 SSE 3 5 1015.9 - 0.6 Recent precip. - - - - - -
26/02:30am 9.5 SSE 4 5 1016.2 - 0.6 - - - - - - -
26/02:00am 9.5 S 4 5 1016.7 - 0.4 - - - - - - -
26/01:30am 9.7 ESE 1 4 1017.0 - 0.4 - - - - - - -
26/01:00am 9.7 SE 1 3 1017.3 - 0.2 - - - - - - -
26/12:30am 9.7 S 1 4 1018.0 - 0.2 - - - - - - -
26/12:00am 9.7 S 3 5 1018.2 - 0.2 Rain - - - - - -
 
Date/Time
EDT
Temp

°C
Wind Pressure Rain
since 9am
mm
Weather Cloud Vis
km
Sea
Height
m
Swell
Dir
 
Speed
knots
Gust
knots
hPa Trend Height
m
Period
s
Dir
25/11:30pm 10.3 SW 7 10 1018.1 - 0.0 - - - - - - -
25/11:00pm 10.7 SW 5 7 1017.8 - 0.0 - - - - - - -
25/10:30pm 10.7 S 5 7 1017.7 - 0.0 - - - - - - -
25/10:00pm 10.8 S 6 8 1018.4 - 0.0 - - - - - - -
25/09:30pm 11.0 SSE 8 13 1018.5 - 0.0 - - - - - - -
25/09:00pm 11.4 SSE 7 10 1018.3 - 0.0 - - - - - - -
25/08:30pm 11.4 SSE 11 15 1018.3 - 0.0 - - - - - - -
25/08:00pm 11.5 SSE 12 15 1017.8 - 0.0 - - - - - - -
25/07:30pm 11.7 SSE 10 14 1017.8 - 0.0 - - - - - - -
25/07:00pm 11.7 SSE 12 17 1017.6 - 0.0 - - - - - - -
25/06:30pm 11.9 SSE 13 19 1017.3 - 0.0 - - - - - - -
25/06:00pm 12.2 SSE 12 18 1017.4 - 0.0 - - - - - - -
25/05:30pm 12.4 SSE 13 18 1016.8 - 0.0 - - - - - - -
25/05:00pm 12.6 SE 15 20 1016.7 - 0.0 - - - - - - -
25/04:30pm 13.1 SE 15 19 1016.6 - 0.0 - - - - - - -
25/04:00pm 13.5 SE 16 21 1016.4 - 0.0 - - - - - - -
25/03:30pm 13.7 SE 17 22 1016.5 - 0.0 - - - - - - -
25/03:00pm 14.0 ESE 16 21 1016.5 - 0.0 - - - - - - -
25/02:30pm 14.3 SE 15 20 1016.4 - 0.0 - - - - - - -
25/02:00pm 14.0 SE 14 18 1016.6 - 0.0 - - - - - - -
25/01:30pm 14.5 SE 18 23 1016.2 - 0.0 - - - - - - -
25/01:00pm 16.3 ESE 13 19 1015.9 - 0.0 - - - - - - -
25/12:30pm 16.1 E 14 17 1015.7 - 0.0 - - - - - - -
25/12:00pm 16.7 ESE 12 15 1015.8 - 0.0 - - - - - - -
25/11:30am 16.7 SE 13 17 1015.8 - 0.0 - - - - - - -
25/11:00am 16.3 ESE 13 17 1015.6 - 0.0 - - - - - - -
25/10:30am 15.8 ESE 11 17 1015.5 - 0.0 - - - - - - -
25/10:00am 16.5 SE 9 12 1015.3 - 0.0 - - - - - - -
25/09:30am 16.0 SE 7 11 1015.1 - 0.0 - - - - - - -
25/09:00am 15.6 NNE 7 8 1015.0 - 0.0 - - - - - - -
25/08:30am 17.3 N 3 7 1014.6 - 0.0 - - - - - - -
25/08:00am 15.4 S 5 9 1014.2 - 0.0 - - - - - - -
25/07:30am 15.5 S 5 11 1014.0 - 0.0 - - - - - - -
25/07:00am 14.7 SE 4 8 1013.4 - 0.0 - - - - - - -
25/06:30am 13.8 SW 3 6 1012.8 - 0.0 - - - - - - -
25/06:00am 13.5 S 1 4 1012.4 - 0.0 - - - - - - -
25/05:30am 13.5 NNE 3 5 1011.8 - 0.0 - - - - - - -
25/05:00am 13.6 ENE 3 4 1011.4 - 0.0 - - - - - - -
25/04:30am 13.6 N 3 5 1010.9 - 0.0 - - - - - - -
25/04:00am 13.7 E 4 8 1010.6 - 0.0 - - - - - - -
25/03:30am 13.2 WNW 4 6 1009.9 - 0.0 - - - - - - -
25/03:00am 13.4 SSW 4 6 1009.7 - 0.0 - - - - - - -
25/02:30am 13.7 W 5 10 1009.6 - 0.0 - - - - - - -
25/02:00am 13.7 W 5 9 1009.2 - 0.0 - - - - - - -
25/01:30am 14.0 N 4 7 1008.9 - 0.0 - - - - - - -
25/01:00am 14.6 N 7 11 1008.9 - 0.0 - - - - - - -
25/12:30am 14.6 NNW 5 7 1008.9 - 0.0 - - - - - - -
25/12:00am 15.0 NNW 3 5 1008.7 - 0.0 - - - - - - -
 
Date/Time
EDT
Temp

°C
Wind Pressure Rain
since 9am
mm
Weather Cloud Vis
km
Sea
Height
m
Swell
Dir
 
Speed
knots
Gust
knots
hPa Trend Height
m
Period
s
Dir
24/11:30pm 15.7 SSE 2 5 1008.7 - 0.0 - - - - - - -
24/11:00pm 16.1 SW 3 4 1008.3 - 0.0 - - - - - - -
24/10:30pm 16.5 W 4 7 1008.2 - 0.0 - - - - - - -
24/10:00pm 17.3 E 4 7 1008.3 - 0.0 - - - - - - -
24/09:30pm 16.7 N 5 8 1008.3 - 0.0 - - - - - - -
24/09:00pm 16.7 S 3 4 1008.5 - 0.0 - - - - - - -
24/08:30pm 16.7 S 4 5 1008.3 - 0.0 - - - - - - -
24/08:00pm 16.8 SW 3 5 1007.8 - 0.0 - - - - - - -
24/07:30pm 17.5 NNE 5 8 1007.8 - 0.0 - - - - - - -
24/07:00pm 17.7 N 5 7 1007.7 - 0.0 - - - - - - -
24/06:30pm 17.7 NNE 7 9 1008.4 - 0.0 - - - - - - -
24/06:00pm 17.6 NE 6 10 1009.1 - 0.0 - - - - - - -
24/05:30pm 17.3 ENE 10 12 1009.4 - 0.0 - - - - - - -
24/05:00pm 17.3 ENE 12 15 1009.6 - 0.0 - - - - - - -
24/04:30pm 18.0 NE 10 15 1009.7 - 0.0 - - - - - - -
24/04:00pm 18.4 NE 10 13 1010.2 - 0.0 - - - - - - -
24/03:30pm 18.2 N 7 9 1011.1 - 0.0 - - - - - - -
24/03:00pm 18.6 NNW 9 12 1011.5 - 0.0 - - - - - - -
24/02:30pm 18.5 NNW 9 12 1012.3 - 0.0 - - - - - - -
24/02:00pm 18.4 NW 9 13 1012.8 - 0.0 - - - - - - -
24/01:30pm 17.0 NW 10 14 1013.6 - 0.0 - - - - - - -
24/01:00pm 16.6 NNW 10 15 1014.3 - 0.0 - - - - - - -
24/12:30pm 16.4 NNW 10 15 1014.9 - 0.0 - - - - - - -
24/12:00pm 16.9 NNW 10 15 1015.6 - 0.0 - - - - - - -
24/11:30am 15.9 NNW 11 15 1016.1 - 0.0 - - - - - - -
24/11:00am 15.6 NNW 12 17 1016.7 - 0.0 - - - - - - -
24/10:30am 15.5 NW 13 20 1017.0 - 0.0 - - - - - - -
24/10:00am 13.8 NNW 14 22 1017.7 - 0.0 - - - - - - -
24/09:30am 12.9 NNW 13 19 1018.2 - 0.0 - - - - - - -
24/09:00am 11.1 NNW 12 17 1018.8 - 0.0 - - - - - - -
24/08:30am 11.1 NNW 14 17 1019.6 - 0.0 - - - - - - -
24/08:00am 11.4 NNW 11 17 1019.9 - 0.0 - - - - - - -
24/07:30am 10.4 NNW 11 15 1020.1 - 0.0 - - - - - - -
24/07:00am 10.0 NNW 9 15 1020.5 - 0.0 - - - - - - -
24/06:30am 8.9 N 8 13 1020.5 - 0.0 - - - - - - -
24/06:00am 8.2 N 6 11 1020.8 - 0.0 - - - - - - -
24/05:30am 9.1 NNW 10 14 1021.1 - 0.0 - - - - - - -
24/05:00am 9.4 NNW 11 15 1021.3 - 0.0 - - - - - - -
24/04:30am 9.2 NNW 9 14 1021.6 - 0.0 - - - - - - -
24/04:00am 8.6 NNW 7 9 1021.9 - 0.0 - - - - - - -
24/03:30am 8.8 NNW 8 11 1022.6 - 0.0 - - - - - - -
24/03:00am 8.6 NNW 7 11 1023.1 - 0.0 - - - - - - -
24/02:30am 9.1 NNW 8 12 1023.2 - 0.0 - - - - - - -
24/02:00am 8.8 N 8 11 1023.6 - 0.0 - - - - - - -
24/01:30am 8.9 N 8 11 1023.8 - 0.0 - - - - - - -
24/01:00am 9.0 N 7 11 1024.3 - 0.0 - - - - - - -
24/12:30am 9.3 NNW 7 10 1024.7 - 0.0 - - - - - - -
24/12:00am 9.4 NNW 8 12 1025.0 - 0.0 - - - - - - -
 
Date/Time
EDT
Temp

°C
Wind Pressure Rain
since 9am
mm
Weather Cloud Vis
km
Sea
Height
m
Swell
Dir
 
Speed
knots
Gust
knots
hPa Trend Height
m
Period
s
Dir
23/11:30pm 9.7 N 7 10 1025.1 - 0.0 - - - - - - -
23/11:00pm 9.8 N 6 10 1025.3 - 0.0 - - - - - - -
23/10:30pm 10.2 N 7 10 1025.2 - 0.0 - - - - - - -
23/10:00pm 10.3 N 6 9 1025.5 - 0.0 - - - - - - -
23/09:30pm 10.6 NNE 4 7 1025.7 - 0.0 - - - - - - -
23/09:00pm 10.5 NNE 4 6 1026.0 - 0.0 - - - - - - -
23/08:30pm 11.0 ENE 3 5 1025.9 - 0.0 - - - - - - -
23/08:00pm 11.5 ESE 6 9 1025.8 - 0.0 - - - - - - -
23/07:30pm 12.0 ESE 8 11 1025.9 - 0.0 - - - - - - -
23/07:00pm 12.2 E 9 12 1025.7 - 0.0 - - - - - - -
23/06:30pm 12.8 ESE 10 14 1025.3 - 0.0 - - - - - - -
23/06:00pm 13.4 SE 9 13 1025.3 - 0.0 - - - - - - -
23/05:30pm 13.8 ESE 9 12 1025.3 - 0.0 - - - - - - -
23/05:00pm 13.8 SE 9 13 1025.1 - 0.0 - - - - - - -
23/04:30pm 14.3 SE 9 12 1025.0 - 0.0 - - - - - - -
23/04:00pm 14.5 ESE 9 12 1025.0 - 0.0 - - - - - - -
23/03:30pm 14.5 ESE 10 12 1025.0 - 0.0 - - - - - - -
23/03:00pm 14.3 SE 9 11 1025.1 - 0.0 - - - - - - -
23/02:30pm 15.0 SE 10 13 1025.4 - 0.0 - - - - - - -
23/02:00pm 14.8 SE 9 13 1025.5 - 0.0 - - - - - - -
23/01:30pm 14.1 SE 9 12 1025.6 - 0.0 - - - - - - -
23/01:00pm 14.0 SE 9 12 1025.7 - 0.0 - - - - - - -
23/12:30pm 13.7 SSE 8 12 1025.9 - 0.0 - - - - - - -
23/12:00pm 13.5 ESE 11 16 1026.2 - 0.0 - - - - - - -
23/11:30am 12.7 ESE 9 12 1026.5 - 0.0 - - - - - - -

Other Formats:

Comma delimited format used in spreadsheet applications
http://www.bom.gov.au/fwo/IDT60701/IDT60701.94970.axf

JavaScript Object Notation format (JSON) in row-major order
http://www.bom.gov.au/fwo/IDT60701/IDT60701.94970.json